Time;durP1;ratioP1;P1;durP2;ratioP2;P2;SDS_P1;SDS_P2;PMS_P1;PMS_P2;Temp;Humidity;BMP_temperature;BMP_pressure;BME280_temperature;BME280_humidity;BME280_pressure;Samples;Min_cycle;Max_cycle;Signal;HPM_P1;HPM_P2
2022/08/12 00:43:15;;;;;;;;;;;;;;;;;;6145027;23;19978;-88
2022/08/12 00:49:14;;;;;;;;;;;;;;;;;;6169789;23;19995;-88
2022/08/12 00:52:23;;;;;;;;;;;;;;;;;;6036414;23;19996;-89
2022/08/12 00:54:59;;;;;;;;;;;;;;;;;;5997781;23;19921;-87
2022/08/12 00:57:59;;;;;;;;;;;;;;;;;;6003020;23;19977;-87
2022/08/12 01:00:43;;;;;;;;;;;;;;;;;;6083035;23;19971;-88
2022/08/12 01:11:27;;;;;;;;;;;;;;;;;;6090909;23;19920;-89
2022/08/12 01:15:40;;;;;;;;;;;;;;;;;;;;;
2022/08/12 01:18:32;;;;;;;;;;;;;;;;;;;;;
2022/08/12 01:21:36;;;;;;;;;;;;;;;;;;6130859;23;20171;-88
2022/08/12 01:24:26;;;;;;;;;;;;;;;;;;6085727;23;20336;-88
2022/08/12 01:30:04;;;;;;;;;;;;;;;;;;6068320;23;20452;-86
2022/08/12 01:32:38;;;;;;;;;;;;;;;;;;6017083;23;20292;-88
2022/08/12 01:35:27;;;;;;;;;;;;;;;;;;6035814;23;19932;-88
2022/08/12 01:37:59;;;;;;;;;;;;;;;;;;6044753;23;20288;-88
2022/08/12 01:40:33;;;;;;;;;;;;;;;;;;6000628;23;20404;-88
2022/08/12 01:43:10;;;;;;;;;;;;;;;;;;6003391;23;19945;-87
2022/08/12 01:48:55;;;;;;;;;;;;;;;;;;6042823;23;19980;-88
2022/08/12 01:51:42;;;;;;;;;;;;;;;;;;6032174;23;19991;-87
2022/08/12 01:55:07;;;;;;;;;;;;;;;;;;6160899;23;20336;-89
2022/08/12 01:57:47;;;;;;;;;;;;;;;;;;6156558;23;19930;-88
2022/08/12 02:12:22;;;;;;;;;;;;;;;;;;6098019;23;20072;-88
2022/08/12 02:15:06;;;;;;;;;;;;;;;;;;6017471;23;19921;-88
2022/08/12 02:21:06;;;;;;;;;;;;;;;;;;6097889;23;19916;-88
2022/08/12 02:23:41;;;;;;;;;;;;;;;;;;6139664;23;19927;-89
2022/08/12 02:26:15;;;;;;;;;;;;;;;;;;6098319;23;19927;-89
2022/08/12 02:29:01;;;;;;;;;;;;;;;;;;6079958;23;19967;-89
2022/08/12 02:31:49;;;;;;;;;;;;;;;;;;6111724;23;19955;-88
2022/08/12 02:34:21;;;;;;;;;;;;;;;;;;6066273;23;19974;-89
2022/08/12 02:37:06;;;;;;;;;;;;;;;;;;6179258;23;19920;-89
2022/08/12 02:39:37;;;;;;;;;;;;;;;;;;6105049;23;20175;-88
2022/08/12 02:42:09;;;;;;;;;;;;;;;;;;6155570;23;19923;-89
2022/08/12 02:45:11;;;;;;;;;;;;;;;;;;;;;
2022/08/12 02:48:28;;;;;;;;;;;;;;;;;;;;;
2022/08/12 02:51:22;;;;;;;;;;;;;;;;;;6044198;23;20327;-86
2022/08/12 02:54:05;;;;;;;;;;;;;;;;;;5966433;23;19954;-86
2022/08/12 02:56:43;;;;;;;;;;;;;;;;;;6056231;23;19951;-88
2022/08/12 02:59:18;;;;;;;;;;;;;;;;;;6052095;23;19926;-87
2022/08/12 03:02:00;;;;;;;;;;;;;;;;;;6086464;23;19977;-89
2022/08/12 03:04:56;;;;;;;;;;;;;;;;;;6140004;23;19943;-88
2022/08/12 03:07:34;;;;;;;;;;;;;;;;;;6136543;23;19920;-85
2022/08/12 03:10:15;;;;;;;;;;;;;;;;;;6099601;23;19950;-88
2022/08/12 03:12:43;;;;;;;;;;;;;;;;;;6177824;23;19919;-87
2022/08/12 03:15:27;;;;;;;;;;;;;;;;;;6085336;23;20193;-88
2022/08/12 03:18:20;;;;;;;;;;;;;;;;;;6109712;23;19952;-87
2022/08/12 03:20:46;;;;;;;;;;;;;;;;;;6120436;23;19970;-88
2022/08/12 03:23:33;;;;;;;;;;;;;;;;;;6125971;23;19927;-89
2022/08/12 03:26:11;;;;;;;;;;;;;;;;;;6125018;23;19995;-88
2022/08/12 03:29:06;;;;;;;;;;;;;;;;;;;;;
2022/08/12 03:31:54;;;;;;;;;;;;;;;;;;6118409;23;21333;-89
2022/08/12 03:34:34;;;;;;;;;;;;;;;;;;6137629;23;19943;-87
2022/08/12 03:37:06;;;;;;;;;;;;;;;;;;6100893;23;19916;-88
2022/08/12 03:42:41;;;;;;;;;;;;;;;;;;6071702;23;19926;-87
2022/08/12 04:02:24;;;;;;;;;;;;;;;;;;6089331;23;19968;-88
2022/08/12 04:04:53;;;;;;;;;;;;;;;;;;6092846;23;20359;-87
2022/08/12 04:07:40;;;;;;;;;;;;;;;;;;;;;
2022/08/12 04:13:57;;;;;;;;;;;;;;;;;;;;;
2022/08/12 04:16:37;;;;;;;;;;;;;;;;;;6145707;23;20452;-87
2022/08/12 04:19:22;;;;;;;;;;;;;;;;;;;;;
2022/08/12 04:21:51;;;;;;;;;;;;;;;;;;6146835;23;20319;-88
2022/08/12 04:25:09;;;;;;;;;;;;;;;;;;;;;
2022/08/12 04:27:38;;;;;;;;;;;;;;;;;;6140789;23;19920;-88
2022/08/12 04:30:30;;;;;;;;;;;;;;;;;;6172346;23;19922;-87
2022/08/12 04:39:39;;;;;;;;;;;;;;;;;;6124458;23;20461;-88
2022/08/12 04:42:50;;;;;;;;;;;;;;;;;;6113337;23;19962;-88
2022/08/12 04:46:02;;;;;;;;;;;;;;;;;;;;;
2022/08/12 04:48:28;;;;;;;;;;;;;;;;;;6027391;23;20718;-87
2022/08/12 04:51:02;;;;;;;;;;;;;;;;;;6099447;23;20344;-85
2022/08/12 04:53:49;;;;;;;;;;;;;;;;;;6097480;23;19923;-87
2022/08/12 04:56:24;;;;;;;;;;;;;;;;;;6074803;23;19916;-88
2022/08/12 04:59:30;;;;;;;;;;;;;;;;;;6150198;23;19927;-88
2022/08/12 05:02:35;;;;;;;;;;;;;;;;;;6132692;23;19928;-87
2022/08/12 05:05:01;;;;;;;;;;;;;;;;;;6111377;23;20323;-86
2022/08/12 05:07:52;;;;;;;;;;;;;;;;;;6128002;23;19931;-88
2022/08/12 05:13:42;;;;;;;;;;;;;;;;;;6103019;23;20007;-87
2022/08/12 05:16:08;;;;;;;;;;;;;;;;;;6103588;23;19924;-85
2022/08/12 05:25:15;;;;;;;;;;;;;;;;;;5881615;24;19928;-86
2022/08/12 05:27:42;;;;;;;;;;;;;;;;;;5890772;24;19918;-87
2022/08/12 05:30:08;;;;;;;;;;;;;;;;;;6026021;23;19921;-86
2022/08/12 05:32:34;;;;;;;;;;;;;;;;;;6057740;23;19955;-86
2022/08/12 05:35:05;;;;;;;;;;;;;;;;;;6137961;23;19922;-86
2022/08/12 05:37:31;;;;;;;;;;;;;;;;;;6157554;23;19996;-87
2022/08/12 05:39:57;;;;;;;;;;;;;;;;;;6148774;23;19916;-86
2022/08/12 05:42:23;;;;;;;;;;;;;;;;;;6158726;23;19979;-87
2022/08/12 05:48:29;;;;;;;;;;;;;;;;;;6093211;23;19968;-88
2022/08/12 05:57:28;;;;;;;;;;;;;;;;;;6139657;23;20492;-88
2022/08/12 05:59:55;;;;;;;;;;;;;;;;;;6046915;23;19925;-88
2022/08/12 06:05:55;;;;;;;;;;;;;;;;;;5981617;23;20364;-89
2022/08/12 06:08:21;;;;;;;;;;;;;;;;;;6083381;23;19935;-90
2022/08/12 06:11:11;;;;;;;;;;;;;;;;;;6125026;23;19950;-89
2022/08/12 06:13:45;;;;;;;;;;;;;;;;;;6046811;23;19928;-89
2022/08/12 06:16:18;;;;;;;;;;;;;;;;;;6109657;23;19951;-89
2022/08/12 06:19:09;;;;;;;;;;;;;;;;;;6119508;23;19979;-88
2022/08/12 06:22:02;;;;;;;;;;;;;;;;;;6100421;23;20326;-88
2022/08/12 06:25:14;;;;;;;;;;;;;;;;;;;;;
2022/08/12 06:30:45;;;;;;;;;;;;;;;;;;;;;
2022/08/12 06:33:12;;;;;;;;;;;;;;;;;;6189690;23;20003;-89
2022/08/12 06:35:56;;;;;;;;;;;;;;;;;;6111491;23;19926;-89
2022/08/12 06:38:27;;;;;;;;;;;;;;;;;;6210715;23;19922;-89
2022/08/12 06:43:49;;;;;;;;;;;;;;;;;;6174462;23;19923;-89
2022/08/12 06:46:27;;;;;;;;;;;;;;;;;;6144057;23;19915;-89
2022/08/12 06:49:07;;;;;;;;;;;;;;;;;;6132487;23;19999;-89
2022/08/12 06:51:44;;;;;;;;;;;;;;;;;;6157266;23;19920;-89
2022/08/12 06:54:29;;;;;;;;;;;;;;;;;;6134246;23;19970;-89
2022/08/12 06:57:01;;;;;;;;;;;;;;;;;;6113468;23;19967;-88
2022/08/12 06:59:43;;;;;;;;;;;;;;;;;;6091413;23;19916;-89
2022/08/12 07:02:12;;;;;;;;;;;;;;;;;;6114352;23;19916;-88
2022/08/12 07:05:20;;;;;;;;;;;;;;;;;;;;;
2022/08/12 07:07:46;;;;;;;;;;;;;;;;;;6184262;23;21008;-86
2022/08/12 07:10:16;;;;;;;;;;;;;;;;;;6160455;23;19946;-87
2022/08/12 07:12:44;;;;;;;;;;;;;;;;;;6161035;23;20378;-86
2022/08/12 07:15:12;;;;;;;;;;;;;;;;;;6160966;23;19916;-86
2022/08/12 07:17:39;;;;;;;;;;;;;;;;;;6164124;23;19920;-85
2022/08/12 07:20:11;;;;;;;;;;;;;;;;;;6145662;23;19920;-88
2022/08/12 07:22:38;;;;;;;;;;;;;;;;;;6181276;23;20308;-87
2022/08/12 07:28:10;;;;;;;;;;;;;;;;;;6147898;23;19964;-87
2022/08/12 07:30:55;;;;;;;;;;;;;;;;;;6093389;23;19995;-87
2022/08/12 07:33:22;;;;;;;;;;;;;;;;;;6153928;23;19926;-87
2022/08/12 07:35:48;;;;;;;;;;;;;;;;;;6133972;23;20002;-87
2022/08/12 07:38:24;;;;;;;;;;;;;;;;;;6129649;23;20004;-88
2022/08/12 07:40:54;;;;;;;;;;;;;;;;;;6157295;23;19959;-86
2022/08/12 07:43:19;;;;;;;;;;;;;;;;;;6156066;23;19920;-86
2022/08/12 07:45:45;;;;;;;;;;;;;;;;;;6159323;23;19943;-86
2022/08/12 07:48:11;;;;;;;;;;;;;;;;;;6161142;23;19923;-86
2022/08/12 07:50:37;;;;;;;;;;;;;;;;;;6162399;23;19938;-86
2022/08/12 07:53:02;;;;;;;;;;;;;;;;;;6162276;23;20309;-86
2022/08/12 07:55:28;;;;;;;;;;;;;;;;;;6162802;23;19924;-86
2022/08/12 07:57:56;;;;;;;;;;;;;;;;;;6161728;23;19916;-86
2022/08/12 08:00:22;;;;;;;;;;;;;;;;;;6161674;23;19920;-86
2022/08/12 08:02:48;;;;;;;;;;;;;;;;;;6137145;23;19926;-87
2022/08/12 08:05:14;;;;;;;;;;;;;;;;;;6143307;23;19928;-88
2022/08/12 08:07:41;;;;;;;;;;;;;;;;;;6155435;23;20413;-88
2022/08/12 08:10:09;;;;;;;;;;;;;;;;;;6142357;23;19987;-87
2022/08/12 08:12:53;;;;;;;;;;;;;;;;;;6160374;23;19920;-87
2022/08/12 08:15:24;;;;;;;;;;;;;;;;;;6151189;23;19922;-87
2022/08/12 08:18:02;;;;;;;;;;;;;;;;;;6158175;23;20245;-87
2022/08/12 08:20:32;;;;;;;;;;;;;;;;;;6143595;23;19924;-88
2022/08/12 08:22:58;;;;;;;;;;;;;;;;;;6131183;23;19920;-87
2022/08/12 08:25:31;;;;;;;;;;;;;;;;;;6097751;23;20105;-86
2022/08/12 08:28:45;;;;;;;;;;;;;;;;;;6131468;23;19916;-88
2022/08/12 08:30:48;;;;;;;;;;;;;;;;;;6125567;23;19969;-88
2022/08/12 08:33:19;;;;;;;;;;;;;;;;;;6124065;23;20401;-88
2022/08/12 08:35:44;;;;;;;;;;;;;;;;;;6136729;23;19950;-89
2022/08/12 08:38:36;;;;;;;;;;;;;;;;;;6133720;23;19932;-87
2022/08/12 08:44:15;;;;;;;;;;;;;;;;;;6128648;23;20013;-87
2022/08/12 08:47:04;;;;;;;;;;;;;;;;;;6111421;23;19920;-88
2022/08/12 08:49:44;;;;;;;;;;;;;;;;;;6099523;23;19924;-88
2022/08/12 08:52:29;;;;;;;;;;;;;;;;;;6124047;23;19916;-88
2022/08/12 08:54:55;;;;;;;;;;;;;;;;;;6104297;23;19942;-88
2022/08/12 08:57:26;;;;;;;;;;;;;;;;;;6182188;23;19916;-88
2022/08/12 09:02:49;;;;;;;;;;;;;;;;;;6114764;23;19990;-87
2022/08/12 09:05:18;;;;;;;;;;;;;;;;;;6128472;23;19934;-88
2022/08/12 09:07:43;;;;;;;;;;;;;;;;;;6155399;23;19920;-88
2022/08/12 09:10:20;;;;;;;;;;;;;;;;;;6109144;23;20901;-88
2022/08/12 09:15:35;;;;;;;;;;;;;;;;;;6186806;23;20245;-88
2022/08/12 09:18:01;;;;;;;;;;;;;;;;;;6129739;23;19999;-89
2022/08/12 09:20:35;;;;;;;;;;;;;;;;;;6144441;23;20309;-89
2022/08/12 09:23:13;;;;;;;;;;;;;;;;;;6144563;23;19930;-88
2022/08/12 09:25:39;;;;;;;;;;;;;;;;;;6125643;23;19991;-88
2022/08/12 09:28:08;;;;;;;;;;;;;;;;;;6156396;23;19927;-89
2022/08/12 09:30:33;;;;;;;;;;;;;;;;;;6156548;23;19946;-88
2022/08/12 09:32:59;;;;;;;;;;;;;;;;;;6143901;23;19955;-88
2022/08/12 09:35:26;;;;;;;;;;;;;;;;;;6159224;23;20311;-87
2022/08/12 09:37:54;;;;;;;;;;;;;;;;;;6158007;23;19936;-87
2022/08/12 09:40:20;;;;;;;;;;;;;;;;;;6156302;23;19916;-87
2022/08/12 09:49:08;;;;;;;;;;;;;;;;;;6197670;23;19983;-88
2022/08/12 09:51:37;;;;;;;;;;;;;;;;;;6179977;23;20399;-87
2022/08/12 09:54:03;;;;;;;;;;;;;;;;;;6155768;23;19926;-87
2022/08/12 09:56:32;;;;;;;;;;;;;;;;;;6158177;23;19940;-88
2022/08/12 09:58:59;;;;;;;;;;;;;;;;;;6158439;23;19944;-87
2022/08/12 10:01:24;;;;;;;;;;;;;;;;;;6158541;23;19927;-88
2022/08/12 10:04:09;;;;;;;;;;;;;;;;;;6162240;23;19932;-87
2022/08/12 10:06:35;;;;;;;;;;;;;;;;;;6162929;23;20247;-87
2022/08/12 10:09:01;;;;;;;;;;;;;;;;;;6154265;23;20404;-85
2022/08/12 10:14:11;;;;;;;;;;;;;;;;;;6193818;23;19927;-86
2022/08/12 10:16:42;;;;;;;;;;;;;;;;;;6135898;23;20377;-86
2022/08/12 10:19:15;;;;;;;;;;;;;;;;;;6158393;23;20203;-85
2022/08/12 10:21:40;;;;;;;;;;;;;;;;;;6155299;23;19920;-86
2022/08/12 10:24:10;;;;;;;;;;;;;;;;;;6158661;23;19920;-87
2022/08/12 10:29:35;;;;;;;;;;;;;;;;;;6157622;23;19923;-87
2022/08/12 10:32:05;;;;;;;;;;;;;;;;;;6161024;23;19979;-86
2022/08/12 10:37:40;;;;;;;;;;;;;;;;;;6151674;23;19999;-87
2022/08/12 10:40:05;;;;;;;;;;;;;;;;;;6155423;23;19926;-86
2022/08/12 10:45:22;;;;;;;;;;;;;;;;;;6133148;23;19931;-86
2022/08/12 10:47:57;;;;;;;;;;;;;;;;;;6164283;23;19936;-85
2022/08/12 10:50:26;;;;;;;;;;;;;;;;;;6159525;23;19920;-86
2022/08/12 10:52:54;;;;;;;;;;;;;;;;;;6131819;23;20043;-86
2022/08/12 10:55:31;;;;;;;;;;;;;;;;;;6164450;23;19949;-87
2022/08/12 10:57:57;;;;;;;;;;;;;;;;;;6165691;23;20287;-86
2022/08/12 11:00:28;;;;;;;;;;;;;;;;;;6143005;23;19920;-87
2022/08/12 11:03:03;;;;;;;;;;;;;;;;;;6152236;23;19924;-86
2022/08/12 11:05:32;;;;;;;;;;;;;;;;;;6153189;23;19919;-87
2022/08/12 11:08:26;;;;;;;;;;;;;;;;;;6143593;23;19924;-86
2022/08/12 11:11:00;;;;;;;;;;;;;;;;;;6116692;23;19916;-86
2022/08/12 11:13:42;;;;;;;;;;;;;;;;;;6106070;23;20255;-86
2022/08/12 11:16:10;;;;;;;;;;;;;;;;;;6101527;23;20019;-86
2022/08/12 11:18:49;;;;;;;;;;;;;;;;;;6114586;23;20284;-86
2022/08/12 11:21:15;;;;;;;;;;;;;;;;;;6133676;23;19987;-86
2022/08/12 11:23:40;;;;;;;;;;;;;;;;;;6132659;23;20580;-85
2022/08/12 11:26:11;;;;;;;;;;;;;;;;;;6124075;23;20259;-85
2022/08/12 11:28:48;;;;;;;;;;;;;;;;;;6165740;23;19940;-85
2022/08/12 11:31:23;;;;;;;;;;;;;;;;;;6131821;23;20018;-86
2022/08/12 11:33:57;;;;;;;;;;;;;;;;;;6134676;23;19935;-86
2022/08/12 11:36:28;;;;;;;;;;;;;;;;;;6131599;23;20235;-86
2022/08/12 11:39:07;;;;;;;;;;;;;;;;;;6111263;23;20000;-85
2022/08/12 11:42:13;;;;;;;;;;;;;;;;;;6137099;23;19916;-86
2022/08/12 11:44:39;;;;;;;;;;;;;;;;;;6139403;23;19947;-86
2022/08/12 11:47:53;;;;;;;;;;;;;;;;;;6097451;23;19928;-85
2022/08/12 11:50:12;;;;;;;;;;;;;;;;;;6143843;23;19927;-86
2022/08/12 11:52:48;;;;;;;;;;;;;;;;;;6109809;23;19920;-85
2022/08/12 11:56:29;;;;;;;;;;;;;;;;;;;;;
2022/08/12 11:58:28;;;;;;;;;;;;;;;;;;6176881;23;19962;-85
2022/08/12 12:00:54;;;;;;;;;;;;;;;;;;6095501;23;19924;-85
2022/08/12 12:06:09;;;;;;;;;;;;;;;;;;6021184;23;20333;-85
2022/08/12 12:08:35;;;;;;;;;;;;;;;;;;6147116;23;19947;-85
2022/08/12 12:11:00;;;;;;;;;;;;;;;;;;6157789;23;20338;-85
2022/08/12 12:13:26;;;;;;;;;;;;;;;;;;6158091;23;20334;-86
2022/08/12 12:15:52;;;;;;;;;;;;;;;;;;6182260;23;19991;-85
2022/08/12 12:18:19;;;;;;;;;;;;;;;;;;6178788;23;20258;-85
2022/08/12 12:20:45;;;;;;;;;;;;;;;;;;6157442;23;20343;-85
2022/08/12 12:23:11;;;;;;;;;;;;;;;;;;6157168;23;20338;-85
2022/08/12 12:25:36;;;;;;;;;;;;;;;;;;6157075;23;19923;-85
2022/08/12 12:28:02;;;;;;;;;;;;;;;;;;6158010;23;19944;-85
2022/08/12 12:30:27;;;;;;;;;;;;;;;;;;6154822;23;19919;-85
2022/08/12 12:32:53;;;;;;;;;;;;;;;;;;6155282;23;20265;-85
2022/08/12 12:35:19;;;;;;;;;;;;;;;;;;6157349;23;20002;-85
2022/08/12 12:37:54;;;;;;;;;;;;;;;;;;6143592;23;19920;-84
2022/08/12 12:40:20;;;;;;;;;;;;;;;;;;6155246;23;19923;-86
2022/08/12 12:42:46;;;;;;;;;;;;;;;;;;6155770;23;19951;-86
2022/08/12 12:45:12;;;;;;;;;;;;;;;;;;6149229;23;20246;-86
2022/08/12 12:47:40;;;;;;;;;;;;;;;;;;6155146;23;19920;-86
2022/08/12 12:50:06;;;;;;;;;;;;;;;;;;6159923;23;19922;-86
2022/08/12 12:52:32;;;;;;;;;;;;;;;;;;6135383;23;20250;-87
2022/08/12 12:54:58;;;;;;;;;;;;;;;;;;6157695;23;19920;-88
2022/08/12 12:57:24;;;;;;;;;;;;;;;;;;6157299;23;20380;-86
2022/08/12 13:00:13;;;;;;;;;;;;;;;;;;6156516;23;19940;-86
2022/08/12 13:02:39;;;;;;;;;;;;;;;;;;6184327;23;19928;-86
2022/08/12 13:05:05;;;;;;;;;;;;;;;;;;6157731;23;20300;-86
2022/08/12 13:07:41;;;;;;;;;;;;;;;;;;6141765;23;19999;-86
2022/08/12 13:10:07;;;;;;;;;;;;;;;;;;6140590;23;19939;-87
2022/08/12 13:12:34;;;;;;;;;;;;;;;;;;6129048;23;19967;-87
2022/08/12 13:15:02;;;;;;;;;;;;;;;;;;6144435;23;20273;-87
2022/08/12 13:17:31;;;;;;;;;;;;;;;;;;6132977;23;19916;-91
2022/08/12 13:20:23;;;;;;;;;;;;;;;;;;6141099;23;19926;-85
2022/08/12 13:23:21;;;;;;;;;;;;;;;;;;6116261;23;20309;-86
2022/08/12 13:26:02;;;;;;;;;;;;;;;;;;6138152;23;19922;-87
2022/08/12 13:28:59;;;;;;;;;;;;;;;;;;6169802;23;19916;-87
2022/08/12 13:31:24;;;;;;;;;;;;;;;;;;6163156;23;20452;-85
2022/08/12 13:34:02;;;;;;;;;;;;;;;;;;6158018;23;20184;-86
2022/08/12 13:36:33;;;;;;;;;;;;;;;;;;6091758;23;20335;-87
2022/08/12 13:39:05;;;;;;;;;;;;;;;;;;6066921;23;19924;-86
2022/08/12 13:41:32;;;;;;;;;;;;;;;;;;6132585;23;19920;-86
2022/08/12 13:44:01;;;;;;;;;;;;;;;;;;6155027;23;19987;-86
2022/08/12 13:46:27;;;;;;;;;;;;;;;;;;6155139;23;19916;-85
2022/08/12 13:48:55;;;;;;;;;;;;;;;;;;6156456;23;19939;-86
2022/08/12 13:51:21;;;;;;;;;;;;;;;;;;6157094;23;19943;-86
2022/08/12 13:53:49;;;;;;;;;;;;;;;;;;6152923;23;20003;-86
2022/08/12 13:56:15;;;;;;;;;;;;;;;;;;6155172;23;20019;-87
2022/08/12 13:58:47;;;;;;;;;;;;;;;;;;6153609;23;19982;-88
2022/08/12 14:01:18;;;;;;;;;;;;;;;;;;6157008;23;20301;-88
2022/08/12 14:03:44;;;;;;;;;;;;;;;;;;6156400;23;19930;-88
2022/08/12 14:06:11;;;;;;;;;;;;;;;;;;6166250;23;19940;-88
2022/08/12 14:08:39;;;;;;;;;;;;;;;;;;6106969;23;19921;-88
2022/08/12 14:11:05;;;;;;;;;;;;;;;;;;6163459;23;19990;-88
2022/08/12 14:13:34;;;;;;;;;;;;;;;;;;6155352;23;19938;-88
2022/08/12 14:16:01;;;;;;;;;;;;;;;;;;6162420;23;20404;-88
2022/08/12 14:18:56;;;;;;;;;;;;;;;;;;6183638;23;19987;-87
2022/08/12 14:21:21;;;;;;;;;;;;;;;;;;6182464;23;19916;-87
2022/08/12 14:23:49;;;;;;;;;;;;;;;;;;6155197;23;19919;-88
2022/08/12 14:26:19;;;;;;;;;;;;;;;;;;6155541;23;19943;-87
2022/08/12 14:28:45;;;;;;;;;;;;;;;;;;6138325;23;20320;-87
2022/08/12 14:31:12;;;;;;;;;;;;;;;;;;6151759;23;20267;-86
2022/08/12 14:33:47;;;;;;;;;;;;;;;;;;6155020;23;19985;-87
2022/08/12 14:36:12;;;;;;;;;;;;;;;;;;6133833;23;19916;-86
2022/08/12 14:38:39;;;;;;;;;;;;;;;;;;6144882;23;20377;-87
2022/08/12 14:41:17;;;;;;;;;;;;;;;;;;6128298;23;19924;-88
2022/08/12 14:43:45;;;;;;;;;;;;;;;;;;6158731;23;19916;-87
2022/08/12 14:46:29;;;;;;;;;;;;;;;;;;6155795;23;19919;-87
2022/08/12 14:48:58;;;;;;;;;;;;;;;;;;6167680;23;19931;-89
2022/08/12 14:51:27;;;;;;;;;;;;;;;;;;6158103;23;19916;-87
2022/08/12 14:56:57;;;;;;;;;;;;;;;;;;6208199;23;19931;-87
2022/08/12 15:02:13;;;;;;;;;;;;;;;;;;6186290;23;19923;-87
2022/08/12 15:04:39;;;;;;;;;;;;;;;;;;6141267;23;19958;-87
2022/08/12 15:07:08;;;;;;;;;;;;;;;;;;6158913;23;19920;-87
2022/08/12 15:09:33;;;;;;;;;;;;;;;;;;6155702;23;19920;-86
2022/08/12 15:12:01;;;;;;;;;;;;;;;;;;6147477;23;19961;-87
2022/08/12 15:14:30;;;;;;;;;;;;;;;;;;6142167;23;19926;-88
2022/08/12 15:17:01;;;;;;;;;;;;;;;;;;6156342;23;19939;-87
2022/08/12 15:19:29;;;;;;;;;;;;;;;;;;6141617;23;19940;-86
2022/08/12 15:25:04;;;;;;;;;;;;;;;;;;6173225;23;20031;-88
2022/08/12 15:27:29;;;;;;;;;;;;;;;;;;6159544;23;19958;-88
2022/08/12 15:29:55;;;;;;;;;;;;;;;;;;6159070;23;19931;-87
2022/08/12 15:32:21;;;;;;;;;;;;;;;;;;6154276;23;20350;-87
2022/08/12 15:34:50;;;;;;;;;;;;;;;;;;6206901;23;19916;-86
2022/08/12 15:37:16;;;;;;;;;;;;;;;;;;6148720;23;20140;-88
2022/08/12 15:39:41;;;;;;;;;;;;;;;;;;6160908;23;20354;-87
2022/08/12 15:42:07;;;;;;;;;;;;;;;;;;6140778;23;19943;-88
2022/08/12 15:44:33;;;;;;;;;;;;;;;;;;6163754;23;19951;-87
2022/08/12 15:47:02;;;;;;;;;;;;;;;;;;6145061;23;19979;-86
2022/08/12 15:49:28;;;;;;;;;;;;;;;;;;6162469;23;19960;-87
2022/08/12 15:51:53;;;;;;;;;;;;;;;;;;6161022;23;20313;-86
2022/08/12 15:54:21;;;;;;;;;;;;;;;;;;6186680;23;20365;-86
2022/08/12 15:56:47;;;;;;;;;;;;;;;;;;6159350;23;19919;-85
2022/08/12 15:59:14;;;;;;;;;;;;;;;;;;6157312;23;20279;-86
2022/08/12 16:01:40;;;;;;;;;;;;;;;;;;6158729;23;19950;-86
2022/08/12 16:04:05;;;;;;;;;;;;;;;;;;6145310;23;19955;-87
2022/08/12 16:06:31;;;;;;;;;;;;;;;;;;6178235;23;19947;-87
2022/08/12 16:08:58;;;;;;;;;;;;;;;;;;6127324;23;19920;-86
2022/08/12 16:11:25;;;;;;;;;;;;;;;;;;6131744;23;19931;-87
2022/08/12 16:13:52;;;;;;;;;;;;;;;;;;6146394;23;19916;-87
2022/08/12 16:16:19;;;;;;;;;;;;;;;;;;6141492;23;19970;-87
2022/08/12 16:18:45;;;;;;;;;;;;;;;;;;6196384;23;19922;-86
2022/08/12 16:21:16;;;;;;;;;;;;;;;;;;6156944;23;19920;-87
2022/08/12 16:23:43;;;;;;;;;;;;;;;;;;6182482;23;19978;-87
2022/08/12 16:26:11;;;;;;;;;;;;;;;;;;6111465;23;19923;-87
2022/08/12 16:28:39;;;;;;;;;;;;;;;;;;6129707;23;19916;-86
2022/08/12 16:31:13;;;;;;;;;;;;;;;;;;6090097;23;19916;-87
2022/08/12 16:33:41;;;;;;;;;;;;;;;;;;6103095;23;20378;-87
2022/08/12 16:36:12;;;;;;;;;;;;;;;;;;6101606;23;20281;-87
2022/08/12 16:38:46;;;;;;;;;;;;;;;;;;6143227;23;20181;-86
2022/08/12 16:41:13;;;;;;;;;;;;;;;;;;6136203;23;19988;-87
2022/08/12 16:43:39;;;;;;;;;;;;;;;;;;6122300;23;19916;-87
2022/08/12 16:46:10;;;;;;;;;;;;;;;;;;6150786;23;19924;-87
2022/08/12 16:48:38;;;;;;;;;;;;;;;;;;6145253;23;19923;-87
2022/08/12 16:51:14;;;;;;;;;;;;;;;;;;6107371;23;20346;-87
2022/08/12 16:53:45;;;;;;;;;;;;;;;;;;6145066;23;19917;-87
2022/08/12 16:56:14;;;;;;;;;;;;;;;;;;6157085;23;19984;-86
2022/08/12 16:58:45;;;;;;;;;;;;;;;;;;6118680;23;19916;-86
2022/08/12 17:01:12;;;;;;;;;;;;;;;;;;6133871;23;20269;-86
2022/08/12 17:04:04;;;;;;;;;;;;;;;;;;6118956;23;19923;-87
2022/08/12 17:06:34;;;;;;;;;;;;;;;;;;6139686;23;19982;-88
2022/08/12 17:09:11;;;;;;;;;;;;;;;;;;6133861;23;19920;-87
2022/08/12 17:11:38;;;;;;;;;;;;;;;;;;6175299;23;19995;-87
2022/08/12 17:14:11;;;;;;;;;;;;;;;;;;6170729;23;19916;-88
2022/08/12 17:16:58;;;;;;;;;;;;;;;;;;6173935;23;19916;-86
2022/08/12 17:19:39;;;;;;;;;;;;;;;;;;6094177;23;19925;-87
2022/08/12 17:22:10;;;;;;;;;;;;;;;;;;6165621;23;19957;-87
2022/08/12 17:24:47;;;;;;;;;;;;;;;;;;6180771;23;19944;-87
2022/08/12 17:27:12;;;;;;;;;;;;;;;;;;6120162;23;19940;-87
2022/08/12 17:29:39;;;;;;;;;;;;;;;;;;6082676;23;19932;-86
2022/08/12 17:32:07;;;;;;;;;;;;;;;;;;6161246;23;19923;-87
2022/08/12 17:37:18;;;;;;;;;;;;;;;;;;6192857;23;19967;-88
2022/08/12 17:39:47;;;;;;;;;;;;;;;;;;6187650;23;19926;-88
2022/08/12 17:42:16;;;;;;;;;;;;;;;;;;6161869;23;20395;-88
2022/08/12 17:44:42;;;;;;;;;;;;;;;;;;6162994;23;19990;-88
2022/08/12 17:47:15;;;;;;;;;;;;;;;;;;6163135;23;19950;-88
2022/08/12 17:49:41;;;;;;;;;;;;;;;;;;6156659;23;20279;-88
2022/08/12 17:52:10;;;;;;;;;;;;;;;;;;6163529;23;19955;-88
2022/08/12 17:54:36;;;;;;;;;;;;;;;;;;6186763;23;19986;-90
2022/08/12 17:57:03;;;;;;;;;;;;;;;;;;6153176;23;19920;-88
2022/08/12 17:59:28;;;;;;;;;;;;;;;;;;6163141;23;19922;-88
2022/08/12 18:01:54;;;;;;;;;;;;;;;;;;6185400;23;19990;-89
2022/08/12 18:04:21;;;;;;;;;;;;;;;;;;6148136;23;19963;-89
2022/08/12 18:06:47;;;;;;;;;;;;;;;;;;6160079;23;19920;-89
2022/08/12 18:09:13;;;;;;;;;;;;;;;;;;6186962;23;19982;-89
2022/08/12 18:14:23;;;;;;;;;;;;;;;;;;6190877;23;19939;-89
2022/08/12 18:16:49;;;;;;;;;;;;;;;;;;6177164;23;19940;-89
2022/08/12 18:19:16;;;;;;;;;;;;;;;;;;6159047;23;20325;-89
2022/08/12 18:21:41;;;;;;;;;;;;;;;;;;6158808;23;20010;-89
2022/08/12 18:24:09;;;;;;;;;;;;;;;;;;6157835;23;20241;-88
2022/08/12 18:26:34;;;;;;;;;;;;;;;;;;6158379;23;19923;-88
2022/08/12 18:29:01;;;;;;;;;;;;;;;;;;6160089;23;19940;-89
2022/08/12 18:31:31;;;;;;;;;;;;;;;;;;6160824;23;19916;-89
2022/08/12 18:33:58;;;;;;;;;;;;;;;;;;6154146;23;19916;-89
2022/08/12 18:36:24;;;;;;;;;;;;;;;;;;6150863;23;20245;-89
2022/08/12 18:38:52;;;;;;;;;;;;;;;;;;6158642;23;21427;-89
2022/08/12 18:41:36;;;;;;;;;;;;;;;;;;6159018;23;19916;-89
2022/08/12 18:44:08;;;;;;;;;;;;;;;;;;6159041;23;20336;-87
2022/08/12 18:46:46;;;;;;;;;;;;;;;;;;6159812;23;20290;-89
2022/08/12 18:49:17;;;;;;;;;;;;;;;;;;6184677;23;20301;-89
2022/08/12 18:51:44;;;;;;;;;;;;;;;;;;6159943;23;19916;-89
2022/08/12 18:54:10;;;;;;;;;;;;;;;;;;6159106;23;19935;-89
2022/08/12 18:56:38;;;;;;;;;;;;;;;;;;6158455;23;19927;-89
2022/08/12 18:59:04;;;;;;;;;;;;;;;;;;6158404;23;19924;-88
2022/08/12 19:01:30;;;;;;;;;;;;;;;;;;6159663;23;20334;-89
2022/08/12 19:03:56;;;;;;;;;;;;;;;;;;6158594;23;19915;-89
2022/08/12 19:06:23;;;;;;;;;;;;;;;;;;6157250;23;19924;-89
2022/08/12 19:08:49;;;;;;;;;;;;;;;;;;6160273;23;19999;-88
2022/08/12 19:16:49;;;;;;;;;;;;;;;;;;6187497;23;20400;-89
2022/08/12 19:19:15;;;;;;;;;;;;;;;;;;6161455;23;19935;-89
2022/08/12 19:21:40;;;;;;;;;;;;;;;;;;6158588;23;19950;-89
2022/08/12 19:26:53;;;;;;;;;;;;;;;;;;6188228;23;19922;-89
2022/08/12 19:29:19;;;;;;;;;;;;;;;;;;6160583;23;19916;-88
2022/08/12 19:31:49;;;;;;;;;;;;;;;;;;6158871;23;19927;-89
2022/08/12 19:34:16;;;;;;;;;;;;;;;;;;6158683;23;20342;-88
2022/08/12 19:36:42;;;;;;;;;;;;;;;;;;6158179;23;20303;-89
2022/08/12 19:39:08;;;;;;;;;;;;;;;;;;6157800;23;19974;-88
2022/08/12 19:41:37;;;;;;;;;;;;;;;;;;6158767;23;19940;-88
2022/08/12 19:44:03;;;;;;;;;;;;;;;;;;6157678;23;20342;-88
2022/08/12 19:46:30;;;;;;;;;;;;;;;;;;6159848;23;20129;-89
2022/08/12 19:48:55;;;;;;;;;;;;;;;;;;6154512;23;19938;-88
2022/08/12 19:51:34;;;;;;;;;;;;;;;;;;6182332;23;19936;-89
2022/08/12 19:54:00;;;;;;;;;;;;;;;;;;6157249;23;19916;-89
2022/08/12 19:56:27;;;;;;;;;;;;;;;;;;6150119;23;19916;-88
2022/08/12 19:59:34;;;;;;;;;;;;;;;;;;6159953;23;19930;-88
2022/08/12 20:01:43;;;;;;;;;;;;;;;;;;6186782;23;19920;-88
2022/08/12 20:04:09;;;;;;;;;;;;;;;;;;6185132;23;19979;-88
2022/08/12 20:06:41;;;;;;;;;;;;;;;;;;6160909;23;19927;-88
2022/08/12 20:09:07;;;;;;;;;;;;;;;;;;6184053;23;19951;-88
2022/08/12 20:11:33;;;;;;;;;;;;;;;;;;6160266;23;20161;-88
2022/08/12 20:14:02;;;;;;;;;;;;;;;;;;6161419;23;20090;-88
2022/08/12 20:16:35;;;;;;;;;;;;;;;;;;6161828;23;19943;-89
2022/08/12 20:19:01;;;;;;;;;;;;;;;;;;6153630;23;19970;-88
2022/08/12 20:21:27;;;;;;;;;;;;;;;;;;6159406;23;19983;-88
2022/08/12 20:23:52;;;;;;;;;;;;;;;;;;6154233;23;19955;-88
2022/08/12 20:26:18;;;;;;;;;;;;;;;;;;6185400;23;19946;-88
2022/08/12 20:28:44;;;;;;;;;;;;;;;;;;6154038;23;19954;-88
2022/08/12 20:31:10;;;;;;;;;;;;;;;;;;6156227;23;19924;-88
2022/08/12 20:33:36;;;;;;;;;;;;;;;;;;6159761;23;19926;-89
2022/08/12 20:36:03;;;;;;;;;;;;;;;;;;6160627;23;19982;-88
2022/08/12 20:38:29;;;;;;;;;;;;;;;;;;6159848;23;19916;-89
2022/08/12 20:40:55;;;;;;;;;;;;;;;;;;6160905;23;19916;-89
2022/08/12 20:43:21;;;;;;;;;;;;;;;;;;6160886;23;19922;-88
2022/08/12 20:45:47;;;;;;;;;;;;;;;;;;6158101;23;20297;-88